Time;durP1;ratioP1;P1;durP2;ratioP2;P2;SDS_P1;SDS_P2;PMS_P1;PMS_P2;Temp;Humidity;BMP_temperature;BMP_pressure;BME280_temperature;BME280_humidity;BME280_pressure;Samples;Min_cycle;Max_cycle;Signal;HPM_P1;HPM_P2
2023/01/27 00:01:56;;;;;;;17.70;2.10;;;;;;;4.70;100.00;102441.78;5266542;28;20047;-75
2023/01/27 00:04:26;;;;;;;12.90;2.35;;;;;;;4.65;100.00;102439.38;5252728;28;20024;-75
2023/01/27 00:06:57;;;;;;;16.70;2.40;;;;;;;4.63;100.00;102435.97;5251232;28;20012;-74
2023/01/27 00:09:27;;;;;;;15.43;3.80;;;;;;;4.60;100.00;102438.78;5246465;28;20017;-75
2023/01/27 00:14:47;;;;;;;14.50;2.67;;;;;;;4.57;100.00;102437.19;5248411;28;20024;-75
2023/01/27 00:17:17;;;;;;;9.82;2.15;;;;;;;4.58;100.00;102438.03;5260888;28;20361;-75
2023/01/27 00:19:47;;;;;;;15.18;1.80;;;;;;;4.61;100.00;102433.38;5245170;28;20056;-75
2023/01/27 00:25:07;;;;;;;13.98;2.40;;;;;;;4.54;100.00;102432.03;5246177;28;20067;-75
2023/01/27 00:27:38;;;;;;;18.08;2.28;;;;;;;4.51;100.00;102434.84;5245963;28;20449;-75
2023/01/27 00:30:09;;;;;;;20.88;5.05;;;;;;;4.57;100.00;102436.34;5250903;28;20048;-75
2023/01/27 00:35:28;;;;;;;13.10;2.58;;;;;;;4.62;100.00;102435.13;5254832;28;20509;-75
2023/01/27 00:37:59;;;;;;;14.75;2.33;;;;;;;4.61;100.00;102420.09;5250181;28;20047;-75
2023/01/27 00:40:29;;;;;;;17.92;2.67;;;;;;;4.60;100.00;102421.03;5245786;28;20079;-75
2023/01/27 00:43:00;;;;;;;19.10;3.30;;;;;;;4.60;100.00;102420.19;5245463;28;20055;-75
2023/01/27 00:45:48;;;;;;;15.07;2.92;;;;;;;4.59;100.00;102422.00;5246208;28;20129;-75
2023/01/27 00:48:18;;;;;;;17.52;2.47;;;;;;;4.56;100.00;102419.50;5245277;28;20035;-75
2023/01/27 00:50:49;;;;;;;18.60;3.30;;;;;;;4.55;100.00;102424.91;5246932;28;20028;-75
2023/01/27 00:53:19;;;;;;;15.50;2.90;;;;;;;4.51;100.00;102431.34;5258319;28;20070;-75
2023/01/27 00:55:50;;;;;;;14.65;2.65;;;;;;;4.48;100.00;102426.22;5245830;28;21900;-75
2023/01/27 00:58:21;;;;;;;18.42;3.15;;;;;;;4.46;100.00;102417.47;5243825;28;20447;-75
2023/01/27 01:00:55;;;;;;;13.77;3.22;;;;;;;4.46;100.00;102423.63;5264762;28;20020;-75
2023/01/27 01:03:30;;;;;;;20.80;3.60;;;;;;;4.43;100.00;102417.66;5253346;28;20376;-75
2023/01/27 01:06:06;;;;;;;21.55;3.47;;;;;;;4.43;100.00;102423.84;5259028;28;20465;-75
2023/01/27 01:08:37;;;;;;;13.40;3.97;;;;;;;4.38;100.00;102405.50;5243687;28;20029;-75
2023/01/27 01:11:14;;;;;;;18.10;3.85;;;;;;;4.34;100.00;102406.59;5243784;28;20093;-75
2023/01/27 01:13:45;;;;;;;12.90;2.75;;;;;;;4.28;100.00;102416.75;5245428;28;20396;-75
2023/01/27 01:16:19;;;;;;;10.35;2.42;;;;;;;4.25;100.00;102408.94;5258833;28;20028;-75
2023/01/27 01:18:49;;;;;;;15.98;2.60;;;;;;;4.26;100.00;102415.94;5247056;28;20025;-75
2023/01/27 01:21:20;;;;;;;10.65;2.90;;;;;;;4.22;100.00;102417.06;5257255;28;20391;-75
2023/01/27 01:23:50;;;;;;;24.63;2.97;;;;;;;4.20;100.00;102418.97;5246437;28;20017;-75
2023/01/27 01:26:21;;;;;;;13.77;2.92;;;;;;;4.18;100.00;102420.84;5244949;28;20067;-75
2023/01/27 01:28:51;;;;;;;23.63;3.10;;;;;;;4.16;100.00;102428.88;5245073;28;20017;-75
2023/01/27 01:31:22;;;;;;;18.48;3.40;;;;;;;4.12;100.00;102412.28;5244707;28;20085;-75
2023/01/27 01:33:52;;;;;;;17.45;3.20;;;;;;;4.12;100.00;102409.63;5244822;28;20032;-75
2023/01/27 01:36:23;;;;;;;13.93;3.40;;;;;;;4.11;100.00;102420.31;5244263;28;20565;-75
2023/01/27 01:38:55;;;;;;;16.20;3.03;;;;;;;4.10;100.00;102418.63;5245087;28;20024;-75
2023/01/27 01:41:26;;;;;;;19.08;4.32;;;;;;;4.09;100.00;102431.03;5244902;28;20054;-75
2023/01/27 01:43:56;;;;;;;17.13;3.25;;;;;;;4.08;100.00;102428.47;5244972;28;20108;-75
2023/01/27 01:46:27;;;;;;;23.95;3.75;;;;;;;4.06;100.00;102433.00;5244032;28;20036;-75
2023/01/27 01:49:02;;;;;;;14.60;3.65;;;;;;;4.14;100.00;102438.75;5245156;28;20115;-75
2023/01/27 01:51:38;;;;;;;;;;;;;;;4.14;100.00;102434.31;5243688;28;20500;-75
2023/01/27 01:54:20;;;;;;;23.42;3.42;;;;;;;4.07;100.00;102432.94;5244123;28;20007;-75
2023/01/27 01:57:06;;;;;;;22.20;4.57;;;;;;;4.03;100.00;102430.53;5244147;28;20029;-75
2023/01/27 01:59:42;;;;;;;18.70;2.90;;;;;;;4.01;100.00;102433.25;5246499;28;20028;-75
2023/01/27 02:02:17;;;;;;;16.58;2.95;;;;;;;4.01;100.00;102429.75;5244566;28;20052;-75
2023/01/27 02:04:57;;;;;;;13.55;2.65;;;;;;;4.01;100.00;102432.41;5244952;28;20037;-75
2023/01/27 02:07:38;;;;;;;13.88;2.97;;;;;;;3.99;100.00;102424.53;5244107;28;20029;-75
2023/01/27 02:10:11;;;;;;;18.30;4.00;;;;;;;3.98;100.00;102433.44;5243187;28;20453;-75
2023/01/27 02:12:47;;;;;;;13.60;3.15;;;;;;;3.96;100.00;102430.00;5244871;28;20060;-75
2023/01/27 02:15:31;;;;;;;12.68;3.10;;;;;;;3.96;100.00;102427.34;5247881;28;20031;-75
2023/01/27 02:18:13;;;;;;;14.68;3.38;;;;;;;3.96;100.00;102431.81;5244269;28;20035;-75
2023/01/27 02:20:54;;;;;;;14.45;3.05;;;;;;;3.95;100.00;102424.78;5244595;28;20401;-75
2023/01/27 02:24:05;;;;;;;14.13;3.70;;;;;;;3.94;100.00;102423.94;5243517;28;20032;-74
2023/01/27 02:26:48;;;;;;;13.00;2.88;;;;;;;3.94;100.00;102426.59;5244172;28;20035;-75
2023/01/27 02:29:21;;;;;;;13.98;3.30;;;;;;;3.93;100.00;102427.53;5244950;28;20055;-75
2023/01/27 02:31:52;;;;;;;10.80;2.63;;;;;;;3.92;100.00;102427.63;5257704;28;20040;-75
2023/01/27 02:34:27;;;;;;;15.27;3.17;;;;;;;3.93;100.00;102429.34;5256540;28;20028;-75
2023/01/27 02:36:59;;;;;;;;;;;;;;;3.90;100.00;102425.88;5244571;28;20374;-75
2023/01/27 02:39:42;;;;;;;17.27;3.05;;;;;;;3.92;100.00;102424.97;5244086;28;19912;-75
2023/01/27 02:42:14;;;;;;;15.93;3.28;;;;;;;3.93;100.00;102426.69;5244474;28;20043;-75
2023/01/27 02:44:45;;;;;;;14.70;3.50;;;;;;;3.92;100.00;102436.44;5244155;28;20032;-75
2023/01/27 02:47:15;;;;;;;18.48;3.80;;;;;;;3.92;100.00;102435.59;5243868;28;20091;-75
2023/01/27 02:49:48;;;;;;;13.82;3.20;;;;;;;3.91;100.00;102437.38;5250568;28;20020;-75
2023/01/27 02:52:19;;;;;;;11.38;3.65;;;;;;;3.89;100.00;102431.28;5250810;28;20096;-75
2023/01/27 02:54:50;;;;;;;18.60;4.10;;;;;;;3.87;100.00;102438.50;5244396;28;20044;-75
2023/01/27 02:57:20;;;;;;;18.63;3.53;;;;;;;3.86;100.00;102434.97;5243617;28;20627;-75
2023/01/27 02:59:51;;;;;;;13.95;3.58;;;;;;;3.86;100.00;102439.41;5253044;28;20028;-75
2023/01/27 03:02:21;;;;;;;20.23;3.60;;;;;;;3.86;100.00;102432.31;5250273;28;20358;-75
2023/01/27 03:04:52;;;;;;;17.70;3.92;;;;;;;3.87;100.00;102435.84;5255038;28;20480;-75
2023/01/27 03:07:23;;;;;;;13.27;3.88;;;;;;;3.85;100.00;102437.72;5247438;28;20021;-75
2023/01/27 03:09:53;;;;;;;18.65;4.22;;;;;;;3.84;100.00;102449.28;5247468;28;20078;-75
2023/01/27 03:12:24;;;;;;;15.98;3.83;;;;;;;3.83;100.00;102434.28;5247622;28;20361;-75
2023/01/27 03:20:34;;;;;;;13.55;3.45;;;;;;;3.76;100.00;102436.41;5248682;28;20028;-75
2023/01/27 03:23:05;;;;;;;15.95;4.13;;;;;;;3.74;100.00;102446.25;5247674;28;20024;-75
2023/01/27 03:25:39;;;;;;;11.23;3.83;;;;;;;3.74;100.00;102448.91;5247817;28;20028;-75
2023/01/27 03:28:10;;;;;;;23.83;5.18;;;;;;;3.74;100.00;102451.56;5249028;28;20025;-75
2023/01/27 03:30:41;;;;;;;14.60;4.13;;;;;;;3.74;100.00;102461.34;5268036;28;20023;-75
2023/01/27 03:33:11;;;;;;;14.32;4.28;;;;;;;3.73;100.00;102464.94;5250453;28;20032;-75
2023/01/27 03:35:47;;;;;;;9.45;3.50;;;;;;;3.72;100.00;102464.09;5246477;28;20031;-75
2023/01/27 03:46:44;;;;;;;17.70;4.95;;;;;;;3.64;100.00;102461.81;5246987;28;20496;-75
2023/01/27 03:49:15;;;;;;;18.17;4.63;;;;;;;3.61;100.00;102463.78;5246765;28;20012;-75
2023/01/27 03:51:45;;;;;;;16.30;4.90;;;;;;;3.57;100.00;102465.75;5233702;28;20029;-75
2023/01/27 03:54:16;;;;;;;17.48;4.75;;;;;;;3.58;100.00;102470.13;5253128;28;20081;-75
2023/01/27 03:56:46;;;;;;;18.40;5.55;;;;;;;3.58;100.00;102477.22;5258356;28;20025;-75
2023/01/27 03:59:17;;;;;;;15.38;4.88;;;;;;;3.55;100.00;102474.72;5248229;28;20430;-75
2023/01/27 04:01:47;;;;;;;15.20;4.40;;;;;;;3.54;100.00;102478.31;5246571;28;20040;-75
2023/01/27 04:07:06;;;;;;;17.02;6.07;;;;;;;3.48;100.00;102490.13;5246447;28;20031;-75
2023/01/27 04:09:37;;;;;;;21.45;5.15;;;;;;;3.46;100.00;102481.38;5255516;28;20411;-75
2023/01/27 04:12:08;;;;;;;15.32;5.53;;;;;;;3.47;100.00;102483.09;5249937;28;20024;-75
2023/01/27 04:14:42;;;;;;;21.13;6.32;;;;;;;3.46;100.00;102477.84;5246842;28;20377;-75
2023/01/27 04:17:15;;;;;;;15.60;6.53;;;;;;;3.45;100.00;102486.75;5260525;28;20036;-75
2023/01/27 04:19:46;;;;;;;19.27;6.15;;;;;;;3.42;100.00;102479.84;5246329;28;20019;-75
2023/01/27 04:22:17;;;;;;;17.60;5.50;;;;;;;3.43;100.00;102478.88;5245365;28;20107;-75
2023/01/27 04:24:47;;;;;;;12.48;4.93;;;;;;;3.41;100.00;102480.75;5246078;28;20541;-75
2023/01/27 04:27:19;;;;;;;14.60;5.30;;;;;;;3.42;100.00;102484.28;5246171;28;20074;-74
2023/01/27 04:29:49;;;;;;;18.08;5.40;;;;;;;3.41;100.00;102493.16;5244970;28;20024;-75
2023/01/27 04:32:20;;;;;;;16.65;5.68;;;;;;;3.41;100.00;102485.19;5246226;28;20058;-75
2023/01/27 04:34:50;;;;;;;19.85;5.22;;;;;;;3.40;100.00;102483.50;5245007;28;20020;-75
2023/01/27 04:37:21;;;;;;;14.73;5.40;;;;;;;3.41;100.00;102491.34;5245682;28;20024;-75
2023/01/27 04:39:51;;;;;;;21.92;5.60;;;;;;;3.41;100.00;102491.34;5245829;28;20013;-75
2023/01/27 04:42:21;;;;;;;13.57;5.25;;;;;;;3.41;100.00;102488.69;5246183;28;20070;-75
2023/01/27 04:44:52;;;;;;;20.52;6.10;;;;;;;3.42;100.00;102493.09;5246060;28;20024;-75
2023/01/27 04:47:22;;;;;;;14.88;5.18;;;;;;;3.42;100.00;102492.25;5245440;28;20059;-75
2023/01/27 04:49:53;;;;;;;19.30;5.30;;;;;;;3.41;100.00;102493.16;5245701;28;20028;-75
2023/01/27 04:52:23;;;;;;;18.35;5.57;;;;;;;3.42;100.00;102493.09;5245696;28;20051;-75
2023/01/27 04:54:54;;;;;;;16.90;5.65;;;;;;;3.40;100.00;102505.56;5246033;28;20024;-75
2023/01/27 04:57:25;;;;;;;16.35;5.65;;;;;;;3.38;100.00;102510.97;5245266;28;20028;-75
2023/01/27 04:59:56;;;;;;;17.58;5.40;;;;;;;3.35;100.00;102508.47;5257309;28;20456;-74
2023/01/27 05:02:26;;;;;;;19.75;5.75;;;;;;;3.34;100.00;102516.50;5252727;28;20135;-75
2023/01/27 05:04:57;;;;;;;18.65;6.03;;;;;;;3.33;100.00;102513.00;5254971;28;20099;-75
2023/01/27 05:07:28;;;;;;;20.98;6.40;;;;;;;3.33;100.00;102518.31;5243964;28;20028;-75
2023/01/27 05:09:58;;;;;;;21.33;6.72;;;;;;;3.32;100.00;102513.09;5245404;28;20020;-75
2023/01/27 05:12:28;;;;;;;19.83;6.25;;;;;;;3.29;100.00;102516.72;5245318;28;20392;-75
2023/01/27 05:14:59;;;;;;;19.15;6.70;;;;;;;3.30;100.00;102525.53;5248911;28;20032;-75
2023/01/27 05:17:31;;;;;;;16.63;7.00;;;;;;;3.28;100.00;102519.47;5265955;28;20085;-75
2023/01/27 05:20:02;;;;;;;21.02;6.63;;;;;;;3.27;100.00;102525.72;5250451;28;20021;-74
2023/01/27 05:22:33;;;;;;;19.33;6.72;;;;;;;3.28;100.00;102528.28;5245374;28;20060;-75
2023/01/27 05:25:04;;;;;;;27.30;6.95;;;;;;;3.28;100.00;102512.38;5245004;28;20635;-75
2023/01/27 05:27:34;;;;;;;22.00;7.10;;;;;;;3.26;100.00;102529.28;5244818;28;20063;-75
2023/01/27 05:30:06;;;;;;;18.40;7.68;;;;;;;3.27;100.00;102528.38;5244465;28;20021;-75
2023/01/27 05:32:36;;;;;;;17.58;7.43;;;;;;;3.24;100.00;102537.34;5245788;28;20040;-75
2023/01/27 05:35:07;;;;;;;19.00;7.88;;;;;;;3.23;100.00;102538.28;5245269;28;20024;-74
2023/01/27 05:37:37;;;;;;;22.80;6.80;;;;;;;3.25;100.00;102544.34;5244473;28;20056;-74
2023/01/27 05:40:09;;;;;;;18.73;6.88;;;;;;;3.25;100.00;102536.38;5244606;28;20385;-75
2023/01/27 05:42:40;;;;;;;14.05;6.68;;;;;;;3.26;100.00;102538.13;5245512;28;20036;-75
2023/01/27 05:45:10;;;;;;;20.25;7.38;;;;;;;3.26;100.00;102540.78;5258167;28;20027;-74
2023/01/27 05:47:41;;;;;;;20.20;7.70;;;;;;;3.26;100.00;102539.91;5243228;28;20112;-75
2023/01/27 05:50:11;;;;;;;28.95;8.13;;;;;;;3.24;100.00;102542.63;5244574;28;20090;-75
2023/01/27 05:52:42;;;;;;;28.25;8.27;;;;;;;3.23;100.00;102551.53;5243358;28;20020;-75
2023/01/27 05:55:12;;;;;;;17.23;7.25;;;;;;;3.21;100.00;102549.88;5244887;28;20082;-75
2023/01/27 05:57:43;;;;;;;23.60;8.80;;;;;;;3.20;100.00;102556.13;5257875;28;20603;-75
2023/01/27 06:00:13;;;;;;;20.80;7.72;;;;;;;3.19;100.00;102555.28;5244307;28;20028;-75
2023/01/27 06:02:44;;;;;;;19.73;8.07;;;;;;;3.19;100.00;102555.28;5255321;28;20032;-75
2023/01/27 06:05:14;;;;;;;26.40;8.55;;;;;;;3.18;100.00;102550.06;5245413;28;20024;-75
2023/01/27 06:07:45;;;;;;;20.30;7.93;;;;;;;3.18;100.00;102560.66;5257143;28;20111;-75
2023/01/27 06:10:16;;;;;;;21.40;7.72;;;;;;;3.16;100.00;102560.72;5244268;28;20012;-75
2023/01/27 06:12:46;;;;;;;27.83;9.02;;;;;;;3.14;100.00;102559.94;5244565;28;20112;-75
2023/01/27 06:15:16;;;;;;;23.85;8.15;;;;;;;3.12;100.00;102559.19;5250345;28;20039;-75
2023/01/27 06:17:47;;;;;;;26.25;8.95;;;;;;;3.12;100.00;102559.19;5254469;28;20024;-75
2023/01/27 06:20:18;;;;;;;25.73;9.27;;;;;;;3.11;100.00;102565.38;5243017;28;20012;-75
2023/01/27 06:22:49;;;;;;;22.73;8.82;;;;;;;3.09;100.00;102562.81;5244678;28;20024;-75
2023/01/27 06:25:19;;;;;;;24.05;8.85;;;;;;;3.09;100.00;102569.94;5244390;28;20028;-75
2023/01/27 06:27:54;;;;;;;27.48;10.10;;;;;;;3.08;100.00;102577.03;5243981;28;20043;-75
2023/01/27 06:30:25;;;;;;;31.00;9.85;;;;;;;3.05;100.00;102579.81;5255709;28;20095;-75
2023/01/27 06:32:55;;;;;;;28.30;10.20;;;;;;;3.06;100.00;102585.97;5258123;28;20115;-75
2023/01/27 06:35:26;;;;;;;35.75;11.05;;;;;;;3.04;100.00;102579.91;5244975;28;20400;-74
2023/01/27 06:37:57;;;;;;;28.55;9.80;;;;;;;3.04;100.00;102585.22;5247175;28;20074;-74
2023/01/27 06:40:31;;;;;;;35.38;11.15;;;;;;;3.04;100.00;102591.38;5256053;28;20051;-75
2023/01/27 06:43:01;;;;;;;33.97;10.57;;;;;;;3.00;100.00;102587.13;5248620;28;20055;-75
2023/01/27 06:45:32;;;;;;;37.38;12.07;;;;;;;2.99;100.00;102592.53;5248747;28;20024;-75
2023/01/27 06:48:02;;;;;;;31.67;11.65;;;;;;;2.98;100.00;102594.31;5253938;28;20053;-75
2023/01/27 06:50:33;;;;;;;31.88;11.23;;;;;;;3.00;100.00;102591.59;5255198;28;20024;-75
2023/01/27 06:53:06;;;;;;;31.33;11.25;;;;;;;2.98;100.00;102596.97;5247089;28;20108;-75
2023/01/27 06:55:40;;;;;;;32.05;11.27;;;;;;;2.98;100.00;102599.63;5248199;28;20052;-75
2023/01/27 06:58:13;;;;;;;35.97;11.23;;;;;;;2.96;100.00;102601.50;5256938;28;20031;-75
2023/01/27 07:00:43;;;;;;;28.25;11.73;;;;;;;2.96;100.00;102600.63;5264518;28;20498;-75
2023/01/27 07:03:14;;;;;;;32.47;11.77;;;;;;;2.96;100.00;102608.56;5246297;28;20115;-75
2023/01/27 07:05:44;;;;;;;32.40;11.10;;;;;;;2.94;100.00;102613.09;5247845;28;20104;-75
2023/01/27 07:08:15;;;;;;;34.50;11.52;;;;;;;2.97;100.00;102615.63;5247623;28;20056;-75
2023/01/27 07:10:45;;;;;;;29.92;10.82;;;;;;;2.96;100.00;102614.75;5251786;28;20024;-74
2023/01/27 07:13:17;;;;;;;28.17;11.25;;;;;;;2.95;100.00;102613.00;5255984;28;20039;-75
2023/01/27 07:15:53;;;;;;;28.83;10.40;;;;;;;2.95;100.00;102613.00;5258062;28;20103;-74
2023/01/27 07:18:23;;;;;;;29.27;10.25;;;;;;;2.98;100.00;102619.97;5254578;28;20627;-75
2023/01/27 07:20:54;;;;;;;26.52;9.18;;;;;;;2.99;100.00;102621.69;5259487;28;20017;-75
2023/01/27 07:23:24;;;;;;;23.52;8.77;;;;;;;2.97;100.00;102621.78;5246652;28;20036;-75
2023/01/27 07:25:55;;;;;;;22.13;8.38;;;;;;;2.99;100.00;102622.53;5247354;28;20024;-75
2023/01/27 07:28:25;;;;;;;23.25;8.77;;;;;;;3.01;100.00;102625.13;5245620;28;20025;-75
2023/01/27 07:31:00;;;;;;;21.80;8.00;;;;;;;2.99;100.00;102622.53;5247189;28;20055;-74
2023/01/27 07:33:30;;;;;;;26.73;9.35;;;;;;;3.00;100.00;102626.06;5265979;28;20035;-75
2023/01/27 07:36:01;;;;;;;25.77;8.98;;;;;;;2.99;100.00;102619.03;5254866;28;20021;-75
2023/01/27 07:38:31;;;;;;;23.15;8.10;;;;;;;2.98;100.00;102618.19;5245456;28;20020;-75
2023/01/27 07:41:06;;;;;;;26.02;9.80;;;;;;;2.96;100.00;102617.41;5246986;28;20087;-75
2023/01/27 07:43:36;;;;;;;26.65;9.38;;;;;;;2.97;100.00;102619.13;5247189;28;20435;-75
2023/01/27 07:46:07;;;;;;;28.83;10.48;;;;;;;2.94;100.00;102621.91;5247208;28;20029;-74
2023/01/27 07:48:37;;;;;;;25.42;9.73;;;;;;;2.94;100.00;102618.41;5247227;28;20032;-75
2023/01/27 07:51:13;;;;;;;24.58;9.60;;;;;;;2.95;100.00;102614.81;5246004;28;20051;-75
2023/01/27 07:53:44;;;;;;;25.92;9.30;;;;;;;2.95;100.00;102626.28;5250009;28;20103;-75
2023/01/27 07:56:15;;;;;;;23.27;9.05;;;;;;;2.96;100.00;102624.47;5245421;28;20540;-75
2023/01/27 07:58:45;;;;;;;28.45;9.70;;;;;;;2.95;100.00;102620.97;5255956;28;20035;-75
2023/01/27 08:01:17;;;;;;;22.65;9.20;;;;;;;2.97;100.00;102620.91;5245583;28;20033;-75
2023/01/27 08:03:47;;;;;;;25.48;9.20;;;;;;;2.98;100.00;102623.50;5244685;28;20033;-75
2023/01/27 08:06:18;;;;;;;18.20;7.68;;;;;;;2.98;100.00;102626.13;5245321;28;20035;-75
2023/01/27 08:08:48;;;;;;;25.70;9.73;;;;;;;2.98;100.00;102623.50;5245341;28;20023;-75
2023/01/27 08:11:19;;;;;;;22.77;9.35;;;;;;;2.99;100.00;102629.66;5245398;28;20070;-75
2023/01/27 08:13:49;;;;;;;24.23;9.48;;;;;;;2.98;100.00;102630.59;5244127;28;20020;-75
2023/01/27 08:16:20;;;;;;;25.17;8.98;;;;;;;3.00;100.00;102639.31;5248392;28;20113;-75
2023/01/27 08:18:52;;;;;;;25.25;9.93;;;;;;;3.01;100.00;102633.06;5245204;28;20116;-75
2023/01/27 08:21:24;;;;;;;24.45;8.70;;;;;;;3.04;100.00;102641.75;5243279;28;20078;-75
2023/01/27 08:23:54;;;;;;;29.15;9.02;;;;;;;3.06;100.00;102639.00;5245073;28;20024;-75
2023/01/27 08:26:25;;;;;;;20.42;8.90;;;;;;;3.09;100.00;102644.19;5244016;28;20103;-75
2023/01/27 08:28:56;;;;;;;27.00;9.68;;;;;;;3.10;100.00;102640.59;5244982;28;20048;-75
2023/01/27 08:31:26;;;;;;;26.90;9.93;;;;;;;3.15;100.00;102641.22;5244586;28;20064;-75
2023/01/27 08:33:57;;;;;;;24.35;9.95;;;;;;;3.17;100.00;102633.22;5245314;28;20111;-75
2023/01/27 08:36:28;;;;;;;23.52;9.48;;;;;;;3.18;100.00;102627.81;5243859;28;20021;-75
2023/01/27 08:38:59;;;;;;;20.02;8.27;;;;;;;3.18;100.00;102635.78;5244479;28;20024;-75
2023/01/27 08:41:30;;;;;;;25.67;9.38;;;;;;;3.18;100.00;102638.44;5244476;28;20025;-75
2023/01/27 08:44:00;;;;;;;24.88;9.65;;;;;;;3.19;100.00;102634.84;5243702;28;20040;-75
2023/01/27 08:46:32;;;;;;;21.60;9.20;;;;;;;3.20;100.00;102633.91;5243949;28;20096;-75
2023/01/27 08:49:03;;;;;;;22.52;9.18;;;;;;;3.22;100.00;102644.47;5244714;28;20052;-75
2023/01/27 08:51:34;;;;;;;19.60;8.52;;;;;;;3.23;100.00;102644.38;5257872;28;20024;-75
2023/01/27 08:54:05;;;;;;;22.65;8.75;;;;;;;3.25;100.00;102642.50;5244294;28;20031;-75
2023/01/27 08:56:36;;;;;;;26.90;9.65;;;;;;;3.28;100.00;102645.00;5244043;28;20028;-75
2023/01/27 08:59:06;;;;;;;18.45;7.65;;;;;;;3.29;100.00;102644.06;5249740;28;20058;-75
2023/01/27 09:01:37;;;;;;;18.98;8.00;;;;;;;3.33;100.00;102647.44;5254657;28;20054;-75
2023/01/27 09:04:07;;;;;;;18.75;8.23;;;;;;;3.34;100.00;102652.66;5257051;28;20041;-75
2023/01/27 09:06:38;;;;;;;16.90;8.07;;;;;;;3.37;100.00;102654.31;5243743;28;20027;-75
2023/01/27 09:09:08;;;;;;;18.02;8.50;;;;;;;3.41;100.00;102655.00;5243325;28;20027;-75
2023/01/27 09:11:42;;;;;;;25.10;8.93;;;;;;;3.43;100.00;102661.09;5243890;28;20024;-75
2023/01/27 09:14:13;;;;;;;20.92;8.98;;;;;;;3.47;100.00;102657.38;5243608;28;20668;-75
2023/01/27 09:16:43;;;;;;;18.67;8.38;;;;;;;3.50;100.00;102657.19;5247201;28;20032;-75
2023/01/27 09:19:14;;;;;;;17.48;7.43;;;;;;;3.53;100.00;102655.25;5244192;28;20020;-75
2023/01/27 09:21:45;;;;;;;20.17;8.02;;;;;;;3.56;100.00;102664.84;5242642;28;20028;-75
2023/01/27 09:24:16;;;;;;;19.85;8.82;;;;;;;3.56;100.00;102657.75;5243818;28;20028;-75
2023/01/27 09:26:47;;;;;;;14.25;7.22;;;;;;;3.57;100.00;102667.44;5243056;28;20074;-75
2023/01/27 09:29:18;;;;;;;16.48;7.95;;;;;;;3.58;100.00;102671.81;5244082;28;20052;-76
2023/01/27 09:31:48;;;;;;;17.48;7.93;;;;;;;3.60;100.00;102666.44;5243597;28;20032;-75
2023/01/27 09:34:19;;;;;;;16.40;7.13;;;;;;;3.63;100.00;102668.94;5243841;28;20032;-75
2023/01/27 09:36:59;;;;;;;20.60;7.45;;;;;;;3.63;100.00;102672.44;5243007;28;20028;-75
2023/01/27 09:39:33;;;;;;;21.80;7.40;;;;;;;3.66;100.00;102683.84;5243165;28;20024;-76
2023/01/27 09:42:39;;;;;;;15.00;6.72;;;;;;;3.66;100.00;102683.84;5242397;28;20033;-76
2023/01/27 09:45:52;;;;;;;16.05;7.05;;;;;;;3.65;100.00;102680.31;5243469;28;20044;-75
2023/01/27 09:48:57;;;;;;;15.50;6.47;;;;;;;3.66;100.00;102689.13;5230905;28;20388;-75
2023/01/27 09:52:06;;;;;;;15.90;6.70;;;;;;;3.68;100.00;102674.88;5242982;28;20671;-76
2023/01/27 09:54:54;;;;;;;14.85;6.53;;;;;;;3.69;100.00;102679.25;5231966;28;20501;-75
2023/01/27 09:57:24;;;;;;;12.00;5.88;;;;;;;3.76;100.00;102685.09;5242065;28;20036;-76
2023/01/27 10:00:09;;;;;;;13.15;6.32;;;;;;;3.77;100.00;102684.19;5252432;28;20024;-75
2023/01/27 10:02:53;;;;;;;13.25;6.20;;;;;;;3.78;100.00;102686.75;5245343;28;20033;-75
2023/01/27 10:05:54;;;;;;;13.98;5.70;;;;;;;3.79;100.00;102683.16;5243071;28;20036;-76
2023/01/27 10:08:39;;;;;;;11.63;5.93;;;;;;;3.80;100.00;102687.50;5243427;28;20021;-76
2023/01/27 10:11:34;;;;;;;12.07;5.70;;;;;;;3.81;100.00;102689.22;5242166;28;20117;-76
2023/01/27 10:14:14;;;;;;;11.65;5.30;;;;;;;3.83;100.00;102683.84;5241422;28;20033;-76
2023/01/27 10:17:16;;;;;;;10.73;4.75;;;;;;;3.87;100.00;102685.44;5258207;28;20032;-76
2023/01/27 10:20:08;;;;;;;9.27;4.97;;;;;;;3.87;100.00;102683.63;5247853;28;20038;-76
2023/01/27 10:22:44;;;;;;;18.17;5.82;;;;;;;3.91;100.00;102686.97;5253052;28;20047;-76
2023/01/27 10:25:35;;;;;;;9.77;5.28;;;;;;;3.93;100.00;102684.25;5245116;28;20025;-75
2023/01/27 10:28:12;;;;;;;13.35;5.55;;;;;;;3.95;100.00;102675.25;5243192;28;20052;-76
2023/01/27 10:31:25;;;;;;;10.25;5.28;;;;;;;4.03;100.00;102682.84;5241609;28;20016;-76
2023/01/27 10:34:04;;;;;;;11.32;5.65;;;;;;;4.15;100.00;102680.41;5242180;28;20411;-76
2023/01/27 10:36:59;;;;;;;14.90;6.25;;;;;;;4.30;100.00;102667.25;5242563;28;20048;-75
2023/01/27 10:39:45;;;;;;;12.40;5.93;;;;;;;4.39;100.00;102672.09;5241798;28;20035;-75
2023/01/27 10:42:40;;;;;;;9.68;4.85;;;;;;;4.47;100.00;102677.84;5243232;28;20924;-76
2023/01/27 10:45:36;;;;;;;10.95;5.85;;;;;;;4.51;100.00;102670.56;5242740;28;20024;-75
2023/01/27 10:48:42;;;;;;;10.18;5.30;;;;;;;4.60;100.00;102670.91;5241287;28;20064;-75
2023/01/27 10:51:20;;;;;;;8.98;4.97;;;;;;;4.65;100.00;102670.66;5228368;28;20041;-76
2023/01/27 10:54:09;;;;;;;10.32;4.70;;;;;;;4.65;100.00;102663.56;5242897;28;20078;-75
2023/01/27 10:56:46;;;;;;;9.30;4.80;;;;;;;4.70;100.00;102665.97;5241889;28;20043;-76
2023/01/27 10:59:35;;;;;;;11.55;5.82;;;;;;;4.70;100.00;102660.66;5246813;28;20022;-75
2023/01/27 11:02:13;;;;;;;9.85;4.72;;;;;;;4.72;100.00;102656.13;5261238;28;20391;-75
2023/01/27 11:04:46;;;;;;;9.35;5.07;;;;;;;4.70;100.00;102665.09;5242100;28;20530;-76
2023/01/27 11:07:20;;;;;;;12.13;5.30;;;;;;;4.73;100.00;102667.59;5242361;28;20024;-75
2023/01/27 11:09:59;;;;;;;8.80;4.45;;;;;;;4.75;100.00;102666.56;5242713;28;20029;-76
2023/01/27 11:12:38;;;;;;;8.43;4.72;;;;;;;4.75;100.00;102663.06;5242303;28;20023;-75
2023/01/27 11:15:26;;;;;;;9.68;4.72;;;;;;;4.73;100.00;102667.59;5246917;28;20016;-75
2023/01/27 11:18:19;;;;;;;10.90;6.13;;;;;;;4.75;100.00;102668.38;5265889;28;20020;-76
2023/01/27 11:20:56;;;;;;;7.82;4.60;;;;;;;4.67;100.00;102667.00;5249877;28;20037;-75
2023/01/27 11:23:30;;;;;;;7.63;4.28;;;;;;;4.66;100.00;102662.59;5259766;28;20020;-75
2023/01/27 11:26:25;;;;;;;12.75;5.40;;;;;;;4.64;100.00;102663.66;5242202;28;20496;-75
2023/01/27 11:29:19;;;;;;;9.32;4.93;;;;;;;4.67;100.00;102667.00;5245251;28;20036;-76
2023/01/27 11:31:55;;;;;;;9.27;4.70;;;;;;;4.69;100.00;102666.91;5245264;28;20025;-76
2023/01/27 11:34:25;;;;;;;;;;;;;;;4.71;100.00;102661.50;5246574;28;20052;-75
2023/01/27 11:36:57;;;;;;;7.95;4.25;;;;;;;4.68;100.00;102670.50;5258922;28;20004;-76
2023/01/27 11:39:32;;;;;;;9.57;4.70;;;;;;;4.73;100.00;102659.63;5244679;28;20176;-76
2023/01/27 11:42:05;;;;;;;8.50;4.35;;;;;;;4.75;100.00;102660.41;5245737;28;20025;-75
2023/01/27 11:44:36;;;;;;;8.95;4.70;;;;;;;4.73;100.00;102657.81;5245250;28;20112;-76
2023/01/27 11:47:10;;;;;;;9.43;4.80;;;;;;;4.67;100.00;102656.38;5245579;28;20100;-76
2023/01/27 11:49:46;;;;;;;10.43;5.60;;;;;;;4.64;100.00;102650.34;5251051;28;20027;-75
2023/01/27 11:52:18;;;;;;;9.52;4.90;;;;;;;4.63;100.00;102659.28;5253127;28;20520;-75
2023/01/27 11:55:14;;;;;;;10.50;5.18;;;;;;;4.66;100.00;102649.31;5243748;28;20021;-75
2023/01/27 11:57:53;;;;;;;8.65;4.53;;;;;;;4.61;100.00;102654.03;5245146;28;20024;-75
2023/01/27 12:00:27;;;;;;;14.50;6.80;;;;;;;4.61;100.00;102655.81;5259933;28;20055;-75
2023/01/27 12:03:26;;;;;;;9.15;4.80;;;;;;;4.58;100.00;102650.69;5253707;28;20073;-75
2023/01/27 12:06:10;;;;;;;11.18;5.28;;;;;;;4.56;100.00;102653.41;5245987;28;20082;-75
2023/01/27 12:08:43;;;;;;;9.10;5.47;;;;;;;4.58;100.00;102651.53;5245178;28;20028;-76
2023/01/27 12:11:23;;;;;;;9.75;5.22;;;;;;;4.56;100.00;102655.22;5244163;28;20025;-76
2023/01/27 12:14:02;;;;;;;9.10;4.85;;;;;;;4.52;100.00;102654.53;5258896;28;20427;-76
2023/01/27 12:16:46;;;;;;;10.32;5.30;;;;;;;4.47;100.00;102656.59;5261691;28;20108;-75
2023/01/27 12:19:16;;;;;;;7.18;4.07;;;;;;;4.43;100.00;102657.69;5265155;28;20024;-75